Time;durP1;ratioP1;P1;durP2;ratioP2;P2;SDS_P1;SDS_P2;PMS_P1;PMS_P2;Temp;Humidity;BMP_temperature;BMP_pressure;BME280_temperature;BME280_humidity;BME280_pressure;Samples;Min_cycle;Max_cycle;Signal;HPM_P1;HPM_P2
2022/06/03 00:01:54;;;;;;;31.60;12.70;;;16.30;37.90;;;;;;4988632;28;20479;-64
2022/06/03 00:04:40;;;;;;;34.13;12.87;;;16.30;37.70;;;;;;4990184;28;20469;-65
2022/06/03 00:07:18;;;;;;;33.13;14.03;;;16.20;37.80;;;;;;4989895;28;20461;-67
2022/06/03 00:10:14;;;;;;;36.73;13.70;;;16.20;38.00;;;;;;4989641;28;20515;-67
2022/06/03 00:13:02;;;;;;;34.00;13.00;;;16.20;38.10;;;;;;4978891;28;20470;-64
2022/06/03 00:15:51;;;;;;;32.47;12.60;;;16.20;38.00;;;;;;4970349;28;20450;-64
2022/06/03 00:18:57;;;;;;;32.93;13.10;;;16.20;38.30;;;;;;4970581;28;20449;-67
2022/06/03 00:22:01;;;;;;;34.27;14.63;;;16.10;38.40;;;;;;4966525;28;20481;-64
2022/06/03 00:24:49;;;;;;;34.20;14.90;;;16.10;38.30;;;;;;4969830;28;20469;-64
2022/06/03 00:27:38;;;;;;;34.67;13.97;;;16.10;38.20;;;;;;4970409;28;20468;-65
2022/06/03 00:30:18;;;;;;;33.70;13.77;;;16.10;38.10;;;;;;4970310;28;20481;-65
2022/06/03 00:33:17;;;;;;;32.70;13.07;;;16.10;38.30;;;;;;4969612;28;20465;-65
2022/06/03 00:35:52;;;;;;;35.77;13.93;;;16.00;38.40;;;;;;4969055;28;20840;-65
2022/06/03 00:38:32;;;;;;;35.27;15.33;;;16.00;38.40;;;;;;4970026;28;20658;-65
2022/06/03 00:41:12;;;;;;;34.10;14.40;;;15.90;38.40;;;;;;4969525;28;20493;-65
2022/06/03 00:43:51;;;;;;;31.50;12.67;;;15.90;39.20;;;;;;4970095;28;20465;-65
2022/06/03 00:46:23;;;;;;;33.93;13.90;;;15.90;38.90;;;;;;4969367;28;20445;-65
2022/06/03 00:49:14;;;;;;;35.03;14.57;;;15.90;38.60;;;;;;4969337;28;20458;-65
2022/06/03 00:52:12;;;;;;;35.53;15.30;;;15.90;39.10;;;;;;4969406;28;20445;-65
2022/06/03 00:55:03;;;;;;;35.33;15.50;;;15.90;38.90;;;;;;4969385;28;20869;-65
2022/06/03 00:58:06;;;;;;;35.83;15.37;;;15.80;38.90;;;;;;4969095;28;20572;-65
2022/06/03 01:00:37;;;;;;;35.47;14.67;;;15.80;39.00;;;;;;4969227;28;20492;-65
2022/06/03 01:03:14;;;;;;;34.00;14.47;;;15.80;38.70;;;;;;4969988;28;20493;-64
2022/06/03 01:05:57;;;;;;;35.47;15.90;;;15.80;39.10;;;;;;4985882;28;20467;-65
2022/06/03 01:08:35;;;;;;;35.00;14.53;;;15.80;39.10;;;;;;4988044;28;20467;-65
2022/06/03 01:11:15;;;;;;;35.47;15.23;;;15.70;39.00;;;;;;4989252;28;20547;-65
2022/06/03 01:13:58;;;;;;;34.13;15.03;;;15.70;39.10;;;;;;4989097;28;20477;-65
2022/06/03 01:16:37;;;;;;;34.87;14.80;;;15.70;39.40;;;;;;4989325;28;20448;-64
2022/06/03 01:19:16;;;;;;;34.13;14.50;;;15.60;39.30;;;;;;4971173;28;20529;-65
2022/06/03 01:21:56;;;;;;;38.30;14.40;;;15.60;39.60;;;;;;4969736;28;20481;-64
2022/06/03 01:24:51;;;;;;;33.60;13.27;;;15.50;39.80;;;;;;4968270;28;20950;-65
2022/06/03 01:27:50;;;;;;;35.07;14.80;;;15.50;40.10;;;;;;4969204;28;20453;-65
2022/06/03 01:30:22;;;;;;;33.60;13.60;;;15.50;39.90;;;;;;4968514;28;20548;-65
2022/06/03 01:33:10;;;;;;;34.13;13.70;;;15.40;39.90;;;;;;4969038;28;20577;-65
2022/06/03 01:36:20;;;;;;;37.17;16.93;;;15.40;40.10;;;;;;4968825;28;20464;-65
2022/06/03 01:39:03;;;;;;;38.83;14.50;;;15.40;40.00;;;;;;4968475;28;20461;-65
2022/06/03 01:42:15;;;;;;;37.77;14.60;;;15.40;40.10;;;;;;4968946;28;20476;-65
2022/06/03 01:45:03;;;;;;;34.20;13.53;;;15.40;40.00;;;;;;4949922;28;20469;-65
2022/06/03 01:47:57;;;;;;;35.63;14.60;;;15.40;39.80;;;;;;4969314;28;20457;-65
2022/06/03 01:51:12;;;;;;;36.70;16.00;;;15.40;39.80;;;;;;4969166;28;20491;-65
2022/06/03 01:54:33;;;;;;;36.33;14.47;;;15.40;40.50;;;;;;4968466;28;20977;-65
2022/06/03 01:57:13;;;;;;;35.20;14.20;;;15.40;39.90;;;;;;4968035;28;20500;-65
2022/06/03 02:00:05;;;;;;;35.33;14.90;;;15.30;39.70;;;;;;4977145;28;20485;-65
2022/06/03 02:02:53;;;;;;;34.90;13.30;;;15.30;39.80;;;;;;4990914;28;20484;-65
2022/06/03 02:05:55;;;;;;;34.97;13.77;;;15.30;39.80;;;;;;4991717;28;20484;-65
2022/06/03 02:08:43;;;;;;;35.47;13.97;;;15.30;39.80;;;;;;4991705;28;20455;-65
2022/06/03 02:11:48;;;;;;;34.80;13.60;;;15.30;39.60;;;;;;4973803;28;20457;-65
2022/06/03 02:14:43;;;;;;;37.40;15.30;;;15.20;40.00;;;;;;4972274;28;20890;-64
2022/06/03 02:17:25;;;;;;;34.20;12.60;;;15.20;39.90;;;;;;4970793;28;20465;-64
2022/06/03 02:20:08;;;;;;;35.97;15.50;;;15.10;39.90;;;;;;4972427;28;20871;-65
2022/06/03 02:22:57;;;;;;;34.50;14.63;;;15.10;39.90;;;;;;4972242;28;20489;-64
2022/06/03 02:26:04;;;;;;;36.07;14.33;;;15.10;40.10;;;;;;4971934;28;20464;-65
2022/06/03 02:31:51;;;;;;;36.70;13.33;;;15.10;39.70;;;;;;4970570;28;20838;-64
2022/06/03 02:34:38;;;;;;;35.50;13.30;;;15.10;39.70;;;;;;4971802;28;20926;-64
2022/06/03 02:37:24;;;;;;;35.50;13.10;;;15.10;39.90;;;;;;4971855;28;20441;-64
2022/06/03 02:40:19;;;;;;;34.67;14.13;;;15.10;39.70;;;;;;4971872;28;20501;-65
2022/06/03 02:43:08;;;;;;;33.53;12.97;;;15.10;39.70;;;;;;4970813;28;20493;-65
2022/06/03 02:45:55;;;;;;;38.67;15.67;;;15.10;39.50;;;;;;4971678;28;20620;-66
2022/06/03 02:49:13;;;;;;;35.43;14.10;;;15.10;39.40;;;;;;4972187;28;20720;-65
2022/06/03 02:52:15;;;;;;;35.93;13.27;;;15.10;39.40;;;;;;4979506;28;21073;-64
2022/06/03 02:55:20;;;;;;;35.17;13.10;;;15.10;39.10;;;;;;4991639;28;20447;-65
2022/06/03 02:58:12;;;;;;;36.33;13.10;;;15.10;39.20;;;;;;4991440;28;20445;-65
2022/06/03 03:00:55;;;;;;;35.10;13.10;;;15.00;39.10;;;;;;4990523;28;20619;-65
2022/06/03 03:03:51;;;;;;;35.20;13.97;;;15.10;39.00;;;;;;4990399;28;20496;-65
2022/06/03 03:06:59;;;;;;;34.93;13.07;;;15.10;39.00;;;;;;4989863;28;20472;-64
2022/06/03 03:09:34;;;;;;;35.77;13.70;;;15.10;38.80;;;;;;4917410;28;20484;-64
2022/06/03 03:12:26;;;;;;;35.93;13.63;;;15.10;38.60;;;;;;4989869;28;20453;-64
2022/06/03 03:15:12;;;;;;;36.57;14.80;;;15.10;38.50;;;;;;4978896;28;20469;-64
2022/06/03 03:21:22;;;;;;;36.93;13.80;;;15.00;38.90;;;;;;4958345;28;20512;-65
2022/06/03 03:24:27;;;;;;;38.00;15.00;;;15.10;38.70;;;;;;4971793;28;20994;-64
2022/06/03 03:27:00;;;;;;;36.47;14.63;;;15.10;38.70;;;;;;4937144;28;20453;-64
2022/06/03 03:29:43;;;;;;;35.00;13.90;;;15.10;38.50;;;;;;4970854;28;20844;-64
2022/06/03 03:32:29;;;;;;;36.53;14.47;;;15.00;38.90;;;;;;4970094;28;20468;-64
2022/06/03 03:35:21;;;;;;;34.63;14.03;;;15.10;38.90;;;;;;4971435;28;20461;-64
2022/06/03 03:38:24;;;;;;;35.70;13.77;;;15.00;38.60;;;;;;4977892;28;20484;-65
2022/06/03 03:41:28;;;;;;;34.57;13.70;;;15.00;38.60;;;;;;4990648;28;20488;-64
2022/06/03 03:44:32;;;;;;;34.37;13.33;;;15.00;38.40;;;;;;4990775;28;20455;-66
2022/06/03 03:47:30;;;;;;;34.63;12.80;;;14.90;38.70;;;;;;4989725;28;20471;-66
2022/06/03 03:50:43;;;;;;;34.80;12.43;;;14.80;38.50;;;;;;4990193;28;20476;-64
2022/06/03 03:53:49;;;;;;;35.77;11.80;;;14.80;38.50;;;;;;4990145;28;20460;-65
2022/06/03 03:56:41;;;;;;;33.20;12.10;;;14.80;38.40;;;;;;4989253;28;20472;-64
2022/06/03 03:59:46;;;;;;;34.43;11.43;;;14.80;38.10;;;;;;4989100;28;20481;-64
2022/06/03 04:02:47;;;;;;;35.30;11.67;;;14.80;38.30;;;;;;4949750;28;20510;-63
2022/06/03 04:05:42;;;;;;;33.90;11.27;;;14.80;38.20;;;;;;4988034;28;21215;-62
2022/06/03 04:08:46;;;;;;;35.10;12.10;;;14.80;38.20;;;;;;4983606;28;20471;-63
2022/06/03 04:11:36;;;;;;;34.20;11.93;;;14.80;38.00;;;;;;4985074;28;20462;-62
2022/06/03 04:14:27;;;;;;;32.80;10.70;;;14.90;38.60;;;;;;4992409;28;20460;-62
2022/06/03 04:17:26;;;;;;;34.60;11.80;;;14.90;38.40;;;;;;4994134;28;21010;-62
2022/06/03 04:20:26;;;;;;;33.80;12.10;;;15.00;38.30;;;;;;4983575;28;20571;-61
2022/06/03 04:23:22;;;;;;;34.13;11.60;;;15.10;37.80;;;;;;4992810;28;20479;-62
2022/06/03 04:26:21;;;;;;;34.97;12.43;;;15.20;38.10;;;;;;4988495;28;20459;-61
2022/06/03 04:32:51;;;;;;;32.87;10.80;;;15.40;38.00;;;;;;4987696;28;20492;-62
2022/06/03 04:35:48;;;;;;;35.73;9.70;;;16.00;38.70;;;;;;4989281;28;20449;-61
2022/06/03 04:38:50;;;;;;;33.50;9.03;;;17.30;35.40;;;;;;4989492;28;20453;-62
2022/06/03 04:41:52;;;;;;;33.80;9.07;;;18.70;30.90;;;;;;4977095;28;20468;-62
2022/06/03 04:44:59;;;;;;;33.80;9.30;;;19.50;27.40;;;;;;4969431;28;20468;-62
2022/06/03 04:48:15;;;;;;;36.53;9.80;;;20.10;25.40;;;;;;4969143;28;20468;-63
2022/06/03 04:51:24;;;;;;;34.57;8.43;;;20.20;24.00;;;;;;4971698;28;20507;-62
2022/06/03 04:54:45;;;;;;;32.50;9.20;;;20.10;24.50;;;;;;4986772;28;20480;-62
2022/06/03 04:57:57;;;;;;;32.70;7.67;;;20.90;23.40;;;;;;4988495;28;20491;-63
2022/06/03 05:00:45;;;;;;;32.67;9.53;;;20.70;21.20;;;;;;4987537;28;20488;-63
2022/06/03 05:03:58;;;;;;;33.33;9.23;;;20.00;22.40;;;;;;4988347;28;20488;-64
2022/06/03 05:06:59;;;;;;;33.83;9.27;;;19.40;24.20;;;;;;4988815;28;20865;-63
2022/06/03 05:10:08;;;;;;;32.20;9.60;;;19.00;25.50;;;;;;4988497;28;20710;-63
2022/06/03 05:13:19;;;;;;;31.37;9.37;;;18.70;26.30;;;;;;4976637;28;20470;-63
2022/06/03 05:16:18;;;;;;;35.00;11.50;;;18.40;27.30;;;;;;4968757;28;20457;-61
2022/06/03 05:19:29;;;;;;;31.53;9.87;;;18.10;28.10;;;;;;4947730;28;20460;-64
2022/06/03 05:22:29;;;;;;;36.60;11.40;;;17.90;29.10;;;;;;4966205;28;20480;-64
2022/06/03 05:25:32;;;;;;;31.50;10.73;;;17.80;29.50;;;;;;4985994;28;20460;-63
2022/06/03 05:28:39;;;;;;;32.67;10.93;;;17.70;30.40;;;;;;4989905;28;20476;-64
2022/06/03 05:31:49;;;;;;;34.80;12.17;;;17.60;30.70;;;;;;4980049;28;21179;-64
2022/06/03 05:34:48;;;;;;;35.77;12.10;;;17.60;31.00;;;;;;4983899;28;20831;-64
2022/06/03 05:37:48;;;;;;;37.00;11.73;;;17.70;31.60;;;;;;4974611;28;20471;-64
2022/06/03 05:40:38;;;;;;;34.40;11.10;;;17.90;31.70;;;;;;4983895;28;20484;-64
2022/06/03 05:43:20;;;;;;;32.67;10.93;;;18.30;32.00;;;;;;4982183;28;20484;-64
2022/06/03 05:46:01;;;;;;;34.53;10.30;;;19.10;29.60;;;;;;4987039;28;20457;-64
2022/06/03 05:48:40;;;;;;;31.27;8.87;;;21.20;25.60;;;;;;4988208;28;20464;-65
2022/06/03 05:51:14;;;;;;;32.80;8.83;;;23.30;19.30;;;;;;4988544;28;20681;-64
2022/06/03 05:53:53;;;;;;;32.23;9.17;;;24.80;16.10;;;;;;4987811;28;20907;-64
2022/06/03 05:56:36;;;;;;;31.07;9.10;;;26.30;13.30;;;;;;4985239;28;20460;-62
2022/06/03 05:59:13;;;;;;;29.60;7.97;;;27.80;10.00;;;;;;4988580;28;20477;-63
2022/06/03 06:01:49;;;;;;;30.57;8.17;;;28.70;9.30;;;;;;4986878;28;20475;-63
2022/06/03 06:04:22;;;;;;;29.87;7.77;;;30.40;7.70;;;;;;4987742;28;20496;-64
2022/06/03 06:07:01;;;;;;;32.53;8.17;;;31.80;4.40;;;;;;4986129;28;20820;-65
2022/06/03 06:09:55;;;;;;;29.43;8.47;;;32.80;2.70;;;;;;4988293;28;20480;-64
2022/06/03 06:12:45;;;;;;;28.53;7.10;;;33.70;1.50;;;;;;4984763;28;20461;-66
2022/06/03 06:15:49;;;;;;;26.97;7.20;;;34.80;1.00;;;;;;4966144;28;20972;-65
2022/06/03 06:18:26;;;;;;;30.37;7.70;;;35.80;1.00;;;;;;4978956;28;20457;-66
2022/06/03 06:21:01;;;;;;;27.23;7.67;;;36.50;1.00;;;;;;4988120;28;20689;-66
2022/06/03 06:23:42;;;;;;;27.00;7.60;;;37.40;1.00;;;;;;4986913;28;20890;-64
2022/06/03 06:26:39;;;;;;;27.40;8.00;;;38.30;1.00;;;;;;4986747;28;20931;-63
2022/06/03 06:29:36;;;;;;;26.50;6.93;;;38.90;1.00;;;;;;4979418;28;20516;-63
2022/06/03 06:32:32;;;;;;;26.30;6.73;;;39.60;1.00;;;;;;4974539;28;20769;-65
2022/06/03 06:35:45;;;;;;;26.03;6.50;;;40.30;1.00;;;;;;4967826;28;20951;-63
2022/06/03 06:38:20;;;;;;;25.20;6.23;;;41.00;1.00;;;;;;4967420;28;21035;-66
2022/06/03 06:41:01;;;;;;;24.90;6.57;;;41.70;1.00;;;;;;4968109;28;20489;-66
2022/06/03 06:43:39;;;;;;;27.33;6.83;;;42.30;1.00;;;;;;4975634;28;20496;-66
2022/06/03 06:46:15;;;;;;;25.87;6.50;;;42.80;1.00;;;;;;4987245;28;20453;-66
2022/06/03 06:48:55;;;;;;;24.37;6.50;;;43.60;1.00;;;;;;4991033;28;20456;-66
2022/06/03 06:51:36;;;;;;;23.57;6.00;;;44.40;1.00;;;;;;4991556;28;20492;-66
2022/06/03 06:54:10;;;;;;;23.97;6.10;;;45.10;1.00;;;;;;4990961;28;20731;-66
2022/06/03 06:56:42;;;;;;;23.50;5.93;;;45.70;1.00;;;;;;4991155;28;20460;-66
2022/06/03 06:59:16;;;;;;;24.93;6.73;;;46.10;1.00;;;;;;4990630;28;20495;-66
2022/06/03 07:01:52;;;;;;;23.17;6.80;;;46.60;1.00;;;;;;4990701;28;20472;-66
2022/06/03 07:04:25;;;;;;;23.60;6.30;;;47.20;1.00;;;;;;4991262;28;20452;-66
2022/06/03 07:06:56;;;;;;;25.23;6.77;;;47.70;1.00;;;;;;4991129;28;20487;-66
2022/06/03 07:09:39;;;;;;;23.07;6.90;;;48.00;1.00;;;;;;4977353;28;20862;-66
2022/06/03 07:12:12;;;;;;;23.40;6.30;;;48.30;1.00;;;;;;4971469;28;20476;-67
2022/06/03 07:14:51;;;;;;;23.17;6.97;;;48.70;1.00;;;;;;4987444;28;20853;-66
2022/06/03 07:20:17;;;;;;;21.87;5.80;;;49.50;1.00;;;;;;4987368;28;20488;-66
2022/06/03 07:22:48;;;;;;;25.77;6.60;;;49.80;1.00;;;;;;4990235;28;20468;-66
2022/06/03 07:25:24;;;;;;;22.17;5.80;;;50.40;1.00;;;;;;4990874;28;20452;-66
2022/06/03 07:27:58;;;;;;;22.57;6.80;;;50.60;1.00;;;;;;4990822;28;20443;-66
2022/06/03 07:30:33;;;;;;;25.00;5.87;;;50.40;1.00;;;;;;4975439;28;20852;-67
2022/06/03 07:33:10;;;;;;;23.07;7.00;;;50.60;1.00;;;;;;4986100;28;20444;-67
2022/06/03 07:35:43;;;;;;;24.70;6.80;;;51.00;1.00;;;;;;4990175;28;20445;-66
2022/06/03 07:38:19;;;;;;;22.13;5.67;;;51.40;1.00;;;;;;4990289;28;20448;-68
2022/06/03 07:40:51;;;;;;;22.57;6.60;;;51.80;1.00;;;;;;4988982;28;20476;-66
2022/06/03 07:43:25;;;;;;;21.17;5.73;;;52.40;1.00;;;;;;4990034;28;21015;-67
2022/06/03 07:45:57;;;;;;;21.80;6.17;;;52.70;1.00;;;;;;4990198;28;20460;-67
2022/06/03 07:48:26;;;;;;;23.13;5.90;;;53.00;1.00;;;;;;4990745;28;21099;-67
2022/06/03 07:50:58;;;;;;;21.60;6.57;;;53.00;1.00;;;;;;4978000;28;20489;-66
2022/06/03 07:53:37;;;;;;;20.67;5.40;;;53.50;1.00;;;;;;4975483;28;20449;-67
2022/06/03 07:56:04;;;;;;;20.80;4.90;;;53.60;1.00;;;;;;4990028;28;20451;-67
2022/06/03 07:58:35;;;;;;;21.20;5.33;;;53.90;1.00;;;;;;4990046;28;20460;-67
2022/06/03 08:01:04;;;;;;;20.93;5.57;;;54.20;1.00;;;;;;4988223;28;20558;-66
2022/06/03 08:03:37;;;;;;;20.70;5.17;;;54.60;1.00;;;;;;4989233;28;20940;-66
2022/06/03 08:06:07;;;;;;;21.07;5.60;;;54.90;1.00;;;;;;4990575;28;20464;-66
2022/06/03 08:11:28;;;;;;;19.90;4.50;;;54.30;1.00;;;;;;4990026;28;20568;-66
2022/06/03 08:13:57;;;;;;;22.00;5.40;;;54.30;1.00;;;;;;4985095;28;20483;-67
2022/06/03 08:16:30;;;;;;;20.53;5.10;;;54.90;1.00;;;;;;4990269;28;20460;-67
2022/06/03 08:18:59;;;;;;;19.20;4.07;;;55.20;1.00;;;;;;4989885;28;20969;-67
2022/06/03 08:21:31;;;;;;;19.57;5.20;;;55.60;1.00;;;;;;4989706;28;20487;-67
2022/06/03 08:24:00;;;;;;;21.80;5.13;;;55.50;1.00;;;;;;4979977;28;21001;-67
2022/06/03 08:26:28;;;;;;;19.17;4.70;;;55.60;1.00;;;;;;4970019;28;20958;-67
2022/06/03 08:29:05;;;;;;;20.03;5.17;;;55.80;1.00;;;;;;4970218;28;20768;-67
2022/06/03 08:31:33;;;;;;;19.90;4.97;;;56.30;1.00;;;;;;4972459;28;20475;-66
2022/06/03 08:34:02;;;;;;;19.70;4.63;;;56.10;1.00;;;;;;4983691;28;20465;-69
2022/06/03 08:36:33;;;;;;;19.50;4.83;;;56.00;1.00;;;;;;4970269;28;20853;-67
2022/06/03 08:39:04;;;;;;;21.60;4.50;;;56.10;1.00;;;;;;4970471;28;21012;-67
2022/06/03 08:41:49;;;;;;;18.60;4.20;;;56.50;1.00;;;;;;4970191;28;20456;-67
2022/06/03 08:44:39;;;;;;;19.27;4.30;;;56.80;1.00;;;;;;4975568;28;20469;-67
2022/06/03 08:47:12;;;;;;;19.03;3.80;;;56.80;1.00;;;;;;4969715;28;20446;-68
2022/06/03 08:49:59;;;;;;;18.77;3.90;;;57.00;1.00;;;;;;4969635;28;20473;-67
2022/06/03 08:52:35;;;;;;;18.77;3.90;;;57.50;1.00;;;;;;4969645;28;20457;-67
2022/06/03 08:55:08;;;;;;;19.30;4.13;;;57.60;1.00;;;;;;4978055;28;20492;-67
2022/06/03 08:57:40;;;;;;;19.60;4.47;;;57.50;1.00;;;;;;4969479;28;20464;-67
2022/06/03 09:00:10;;;;;;;19.60;3.43;;;57.20;1.00;;;;;;4969355;28;21242;-67
2022/06/03 09:02:45;;;;;;;20.30;4.73;;;56.90;1.00;;;;;;4969003;28;20453;-68
2022/06/03 09:05:17;;;;;;;21.13;3.60;;;55.60;1.00;;;;;;4984752;28;20467;-67
2022/06/03 09:07:49;;;;;;;20.17;4.33;;;54.70;1.00;;;;;;4989408;28;20875;-67
2022/06/03 09:10:22;;;;;;;22.17;4.53;;;52.50;1.00;;;;;;4987915;28;20488;-67
2022/06/03 09:12:58;;;;;;;20.23;4.50;;;50.00;1.00;;;;;;4988862;28;20449;-67
2022/06/03 09:15:29;;;;;;;22.00;4.50;;;49.80;1.00;;;;;;4984435;28;20468;-66
2022/06/03 09:18:00;;;;;;;21.47;4.50;;;49.30;1.00;;;;;;4970006;28;20941;-67
2022/06/03 09:20:31;;;;;;;21.60;4.17;;;47.20;1.00;;;;;;4968891;28;21056;-69
2022/06/03 09:23:00;;;;;;;22.27;5.07;;;46.40;1.00;;;;;;4969203;28;20488;-67
2022/06/03 09:25:31;;;;;;;22.57;4.47;;;46.30;1.00;;;;;;4987051;28;20800;-66
2022/06/03 09:27:59;;;;;;;22.07;4.50;;;45.60;1.00;;;;;;4969011;28;20442;-66
2022/06/03 09:30:31;;;;;;;21.97;4.27;;;44.90;1.00;;;;;;4969057;28;20473;-68
2022/06/03 09:33:02;;;;;;;21.87;4.53;;;44.50;1.00;;;;;;4983352;28;20457;-68
2022/06/03 09:35:29;;;;;;;22.00;4.33;;;43.40;1.00;;;;;;4987341;28;20448;-68
2022/06/03 09:38:00;;;;;;;22.97;4.40;;;42.00;1.00;;;;;;4970357;28;20468;-69
2022/06/03 09:40:31;;;;;;;22.90;3.93;;;40.80;1.00;;;;;;4969423;28;20779;-66
2022/06/03 09:43:01;;;;;;;24.70;5.60;;;39.80;1.00;;;;;;4969191;28;20869;-68
2022/06/03 09:45:29;;;;;;;26.10;6.13;;;38.60;1.00;;;;;;4986233;28;20463;-68
2022/06/03 09:48:00;;;;;;;24.90;5.50;;;37.30;1.00;;;;;;4988286;28;20475;-67
2022/06/03 09:50:28;;;;;;;25.37;5.13;;;36.30;1.00;;;;;;4987413;28;20488;-67
2022/06/03 09:53:13;;;;;;;23.70;5.73;;;35.40;1.00;;;;;;4987562;28;20476;-68
2022/06/03 09:55:43;;;;;;;23.43;5.17;;;34.70;1.00;;;;;;4987834;28;20452;-68
2022/06/03 09:58:12;;;;;;;23.47;5.37;;;34.20;1.30;;;;;;4987064;28;20457;-67
2022/06/03 10:00:44;;;;;;;23.60;4.83;;;33.80;1.60;;;;;;4987711;28;20469;-68
2022/06/03 10:03:14;;;;;;;23.50;5.07;;;33.50;3.10;;;;;;4988545;28;21001;-67
2022/06/03 10:05:43;;;;;;;22.80;5.43;;;33.10;3.00;;;;;;4986643;28;20565;-68
2022/06/03 10:08:12;;;;;;;23.33;5.20;;;32.90;3.10;;;;;;4987424;28;20476;-67
2022/06/03 10:13:25;;;;;;;25.10;5.10;;;32.40;4.20;;;;;;4985427;28;20453;-67
2022/06/03 10:15:56;;;;;;;24.90;5.20;;;32.20;4.80;;;;;;4986754;28;20460;-67
2022/06/03 10:18:30;;;;;;;27.20;5.87;;;31.90;4.50;;;;;;4987266;28;20452;-67
2022/06/03 10:20:58;;;;;;;23.47;5.57;;;31.50;5.30;;;;;;4987311;28;20504;-67
2022/06/03 10:23:29;;;;;;;23.30;5.40;;;31.40;5.60;;;;;;4990764;28;20485;-67
2022/06/03 10:25:59;;;;;;;23.30;5.50;;;31.10;6.20;;;;;;4984695;28;20962;-67
2022/06/03 10:28:31;;;;;;;23.93;5.90;;;31.00;6.80;;;;;;4972267;28;20465;-67
2022/06/03 10:31:05;;;;;;;22.83;5.30;;;30.80;6.50;;;;;;4970071;28;20865;-67
2022/06/03 10:33:34;;;;;;;23.63;5.03;;;30.50;7.20;;;;;;4990860;28;20496;-67
2022/06/03 10:36:04;;;;;;;23.70;6.00;;;30.30;6.80;;;;;;4986491;28;20473;-67
2022/06/03 10:38:33;;;;;;;23.70;5.30;;;30.20;8.10;;;;;;4971201;28;20609;-67
2022/06/03 10:41:06;;;;;;;23.93;5.40;;;30.20;8.50;;;;;;4971297;28;20486;-67
2022/06/03 10:43:34;;;;;;;23.10;4.90;;;30.20;9.00;;;;;;4972113;28;20481;-67
2022/06/03 10:46:09;;;;;;;24.57;6.30;;;30.20;9.20;;;;;;4989372;28;20460;-67
2022/06/03 10:48:37;;;;;;;23.63;4.80;;;30.10;8.10;;;;;;4972070;28;20456;-67
2022/06/03 10:51:17;;;;;;;24.63;5.40;;;30.00;7.80;;;;;;4972314;28;20472;-67
2022/06/03 11:02:28;;;;;;;24.97;5.93;;;29.80;8.20;;;;;;4971438;28;20577;-67
2022/06/03 11:05:09;;;;;;;24.40;4.60;;;29.70;8.60;;;;;;4985585;28;20484;-67
2022/06/03 11:07:36;;;;;;;24.47;4.80;;;29.60;8.80;;;;;;4987570;28;20468;-66
2022/06/03 11:10:08;;;;;;;24.67;5.43;;;29.60;9.40;;;;;;4991670;28;20476;-67
2022/06/03 11:12:36;;;;;;;25.97;4.93;;;29.50;9.00;;;;;;4991131;28;20465;-67
2022/06/03 11:15:31;;;;;;;26.63;5.20;;;29.50;9.70;;;;;;4990371;28;20456;-67
2022/06/03 11:17:59;;;;;;;25.53;5.50;;;29.50;8.60;;;;;;4985482;28;20470;-67
2022/06/03 11:20:34;;;;;;;24.30;5.17;;;29.40;9.00;;;;;;4970777;28;20486;-67
2022/06/03 11:23:03;;;;;;;24.13;5.30;;;29.40;8.90;;;;;;4970975;28;20511;-66
2022/06/03 11:25:32;;;;;;;24.17;5.37;;;29.40;9.60;;;;;;4985330;28;20548;-66
2022/06/03 11:28:01;;;;;;;26.57;4.90;;;29.30;9.60;;;;;;4987585;28;20462;-66
2022/06/03 11:30:36;;;;;;;24.47;5.13;;;29.20;9.60;;;;;;4970677;28;20480;-66
2022/06/03 11:33:06;;;;;;;25.07;4.53;;;29.30;9.50;;;;;;4985918;28;20443;-66
2022/06/03 11:35:38;;;;;;;27.70;4.30;;;29.40;8.40;;;;;;4990031;28;20471;-66
2022/06/03 11:38:09;;;;;;;26.43;4.87;;;29.40;7.00;;;;;;4989385;28;20476;-67
2022/06/03 11:40:39;;;;;;;25.07;4.10;;;29.40;6.30;;;;;;4970676;28;20488;-66
2022/06/03 11:43:13;;;;;;;25.27;4.03;;;29.50;6.60;;;;;;4970941;28;20461;-66
2022/06/03 11:45:46;;;;;;;28.13;4.43;;;29.60;6.10;;;;;;4984466;28;20992;-66
2022/06/03 11:48:20;;;;;;;24.70;3.80;;;29.80;6.20;;;;;;4979946;28;21007;-66
2022/06/03 11:50:47;;;;;;;25.83;3.93;;;30.20;5.90;;;;;;4988422;28;20511;-66
2022/06/03 11:53:22;;;;;;;25.20;4.70;;;30.50;5.20;;;;;;4989023;28;20887;-66
2022/06/03 11:55:49;;;;;;;25.50;4.20;;;30.70;5.00;;;;;;4989378;28;20459;-66
2022/06/03 11:58:19;;;;;;;26.90;4.27;;;30.70;4.70;;;;;;4990360;28;20560;-67
2022/06/03 12:00:51;;;;;;;24.80;4.20;;;30.80;5.20;;;;;;4974627;28;20473;-67
2022/06/03 12:03:37;;;;;;;25.17;4.43;;;30.90;4.80;;;;;;4970475;28;20458;-67
2022/06/03 12:06:07;;;;;;;24.50;4.07;;;31.00;5.50;;;;;;4988443;28;20548;-67
2022/06/03 12:08:45;;;;;;;24.17;4.47;;;31.30;5.60;;;;;;4988627;28;20468;-66
2022/06/03 12:13:14;;;;;;;24.97;4.10;;;31.40;5.80;;;;;;4973253;28;20612;-67
2022/06/03 12:14:19;;;;;;;27.13;4.53;;;31.30;4.80;;;;;;4988120;28;20532;-66
2022/06/03 12:16:59;;;;;;;29.73;4.00;;;31.30;4.40;;;;;;4988998;28;20537;-66
2022/06/03 12:19:39;;;;;;;26.50;4.40;;;31.40;4.30;;;;;;4988130;28;20507;-66
2022/06/03 12:22:34;;;;;;;24.23;3.70;;;31.40;4.50;;;;;;4969684;28;20473;-67
2022/06/03 12:25:03;;;;;;;24.70;3.53;;;31.40;4.20;;;;;;4973568;28;20494;-67
2022/06/03 12:27:33;;;;;;;24.37;4.00;;;31.40;4.20;;;;;;4989497;28;20469;-66
2022/06/03 12:30:21;;;;;;;25.07;5.00;;;31.40;3.70;;;;;;4987508;28;21019;-66
2022/06/03 12:32:55;;;;;;;25.70;4.07;;;31.30;3.90;;;;;;4969470;28;20449;-66
2022/06/03 12:35:52;;;;;;;24.43;3.50;;;31.20;3.20;;;;;;4970557;28;20533;-66
2022/06/03 12:38:49;;;;;;;25.17;3.80;;;31.10;3.50;;;;;;4969390;28;20450;-65
2022/06/03 12:41:49;;;;;;;24.30;3.53;;;31.00;4.00;;;;;;4977240;28;20469;-66
2022/06/03 12:44:41;;;;;;;25.03;3.87;;;31.10;4.00;;;;;;4987487;28;20488;-66
2022/06/03 12:47:51;;;;;;;25.23;3.30;;;31.00;3.90;;;;;;4988983;28;20504;-66
2022/06/03 12:50:29;;;;;;;24.53;3.77;;;31.00;3.00;;;;;;4987986;28;20480;-67
2022/06/03 12:53:02;;;;;;;30.03;4.30;;;31.00;3.90;;;;;;4970928;28;20461;-67
2022/06/03 12:55:31;;;;;;;24.67;3.77;;;31.00;4.20;;;;;;4969039;28;20938;-67
2022/06/03 12:58:01;;;;;;;24.80;4.27;;;31.10;4.60;;;;;;4968780;28;20835;-67
2022/06/03 13:00:32;;;;;;;26.00;3.90;;;31.10;4.20;;;;;;4977159;28;20480;-66
2022/06/03 13:03:01;;;;;;;24.67;3.63;;;31.10;3.70;;;;;;4973284;28;20551;-67
2022/06/03 13:05:38;;;;;;;25.00;2.90;;;31.00;3.90;;;;;;4982621;28;20480;-67
2022/06/03 13:08:08;;;;;;;26.00;4.70;;;31.10;3.80;;;;;;4981506;28;20472;-67
2022/06/03 13:10:54;;;;;;;25.77;3.53;;;31.10;3.70;;;;;;4988708;28;20500;-67
2022/06/03 13:13:41;;;;;;;25.23;3.50;;;31.20;3.10;;;;;;4987547;28;20456;-67
2022/06/03 13:16:42;;;;;;;25.83;4.60;;;31.10;3.10;;;;;;4988499;28;20852;-66
2022/06/03 13:19:45;;;;;;;24.63;3.40;;;31.10;3.60;;;;;;4987159;28;21031;-66
2022/06/03 13:22:21;;;;;;;25.70;3.87;;;31.00;3.60;;;;;;4987051;28;20460;-67
2022/06/03 13:25:27;;;;;;;24.70;3.50;;;30.90;2.80;;;;;;4987815;28;20543;-67
2022/06/03 13:28:25;;;;;;;24.20;3.77;;;30.70;2.70;;;;;;4971794;28;20468;-66
2022/06/03 13:31:18;;;;;;;25.00;4.53;;;30.50;3.80;;;;;;4986322;28;20476;-66
2022/06/03 13:34:16;;;;;;;23.90;3.60;;;30.30;5.00;;;;;;4968052;28;20878;-66
2022/06/03 13:36:53;;;;;;;25.07;4.03;;;30.10;6.20;;;;;;4967482;28;20470;-66
2022/06/03 13:39:50;;;;;;;25.33;4.47;;;29.90;7.20;;;;;;4967894;28;20504;-66
2022/06/03 13:45:19;;;;;;;27.00;5.70;;;29.50;9.70;;;;;;4987765;28;20631;-66
2022/06/03 13:47:52;;;;;;;26.23;6.57;;;29.30;10.70;;;;;;4980052;28;20493;-66
2022/06/03 13:50:31;;;;;;;37.13;13.37;;;29.10;11.40;;;;;;4969093;28;20489;-66
2022/06/03 13:53:01;;;;;;;28.80;10.23;;;29.00;12.70;;;;;;4976548;28;20641;-66
2022/06/03 13:55:31;;;;;;;52.53;36.97;;;28.90;12.40;;;;;;4970348;28;20461;-66
2022/06/03 13:58:03;;;;;;;36.77;16.30;;;28.80;13.40;;;;;;4992617;28;20961;-66
2022/06/03 14:00:34;;;;;;;29.50;9.97;;;28.70;13.50;;;;;;4972184;28;20481;-66
2022/06/03 14:03:11;;;;;;;24.40;7.77;;;28.60;14.10;;;;;;4975408;28;20460;-66
2022/06/03 14:05:41;;;;;;;23.60;6.30;;;28.40;14.30;;;;;;4972722;28;20489;-66
2022/06/03 14:08:15;;;;;;;25.73;6.20;;;28.20;15.10;;;;;;4972898;28;20531;-66
2022/06/03 14:10:47;;;;;;;24.00;5.40;;;28.10;15.40;;;;;;4972557;28;20485;-66
2022/06/03 14:13:24;;;;;;;26.37;5.53;;;28.00;15.00;;;;;;4988895;28;20457;-67
2022/06/03 14:15:57;;;;;;;25.23;6.40;;;27.80;15.40;;;;;;4972506;28;20461;-67
2022/06/03 14:18:48;;;;;;;24.57;6.50;;;27.70;15.80;;;;;;4991032;28;20460;-67
2022/06/03 14:21:19;;;;;;;25.07;6.70;;;27.60;16.90;;;;;;4991178;28;20472;-67
2022/06/03 14:23:47;;;;;;;24.83;6.60;;;27.50;17.10;;;;;;4972714;28;20477;-66
2022/06/03 14:26:20;;;;;;;25.83;6.63;;;27.50;17.90;;;;;;4972791;28;20484;-67
2022/06/03 14:28:54;;;;;;;26.97;6.80;;;27.40;17.60;;;;;;4989041;28;20461;-67